United States > Florida

Ormond Beach, FL (32174)

4:25 PM EDT on July 07, 2015 (GMT -0400)
KOMN - Ormond Beach Airport Control Tower | | Change Station
CLOSE
Current Station
Personal Weather Station
Location: Ormond Beach, FL
Elevation: 50 ft
Nearby Weather Stations

Elev 50 ft 29.30 °N, 81.12 °W | Updated 22 seconds ago

Scattered Clouds
Scattered Clouds
81.7 °F
Feels Like 86 °F
N
7.0
Wind Variable Wind from South
Gusts 15.0 mph

Today
High -- | Low -- °F
--% Chance of Precip.
Yesterday
High -- | Low -- °F
Precip. -- in
6:31 AM 8:27 PM
Waning Gibbous, 61% visible
Pressure 30.14 in
Visibility 7.0 miles
Clouds Scattered Clouds 8000 ft
Heat Index 86 °F
Dew Point 71 °F
Humidity 71%
Rainfall 0.00 in
Snow Depth Not available.
UV 9 out of 12
Pollen 1.90 out of 12
Air Quality Not available.
Flu Activity Not available.
METAR KOMN 071950Z 12010KT 7SM VCSH SCT080 27/22 A3014

More Conditions Fewer Conditions

Pressure 30.14 in
Visibility 7.0 miles
Clouds Scattered Clouds 8000 ft
Heat Index 86 °F
Dew Point 71 °F
Humidity 71%
Rainfall 0.00 in
Snow Depth Not available.
UV 9 out of 12
Pollen 1.90 out of 12
Air Quality Not available.
Flu Activity Not available.
METAR KOMN 071950Z 12010KT 7SM VCSH SCT080 27/22 A3014

More Conditions Fewer Conditions

10-Day Weather Forecast

×

Almanac

Astronomy

Jul. 07, 2015 Rise Set
Actual Time
Civil Twilight
Nautical Twilight
Astronomical Twilight
Moon
Length of Visible Light
Length of Day
Tomorrow will be .
, % of the Moon is Illuminated

Today's Extremes

State Highs State Lows

Community

WunderPhotos

Upload Photos

1,835,890 photos uploaded!

WunderBlogs® & News

Nearby

Air Quality

  Air Quality AQ Index Pollutant
Not available.

Snow Depth

Station Depth Elevation

Earthquake Activity

City Distance Mag. Time & Date
Minimum magnitude displayed is 2.5.

Coastal Water Temperatures

Place Temperature

Stations

Nearby Weather Stations

Station Location Temp. Windchill Dew Point Humidity Wind Precip. Elev Updated Type